sensor_id;sensor_type;location;lat;lon;timestamp;temperature;humidity
5461;DHT22;2753;49.196;8.286;2023-12-29T00:00:41;8.90;99.90
5461;DHT22;2753;49.196;8.286;2023-12-29T00:03:06;8.90;99.90
5461;DHT22;2753;49.196;8.286;2023-12-29T00:05:32;8.90;99.90
5461;DHT22;2753;49.196;8.286;2023-12-29T00:07:58;8.90;99.90
5461;DHT22;2753;49.196;8.286;2023-12-29T00:10:23;8.90;99.90
5461;DHT22;2753;49.196;8.286;2023-12-29T00:12:49;8.90;99.90
5461;DHT22;2753;49.196;8.286;2023-12-29T00:15:18;8.90;99.90
5461;DHT22;2753;49.196;8.286;2023-12-29T00:17:44;8.90;99.90
5461;DHT22;2753;49.196;8.286;2023-12-29T00:20:11;8.90;99.90
5461;DHT22;2753;49.196;8.286;2023-12-29T00:22:36;8.90;99.90
5461;DHT22;2753;49.196;8.286;2023-12-29T00:25:02;8.90;99.90
5461;DHT22;2753;49.196;8.286;2023-12-29T00:27:28;8.90;99.90
5461;DHT22;2753;49.196;8.286;2023-12-29T00:29:54;8.90;99.90
5461;DHT22;2753;49.196;8.286;2023-12-29T00:32:20;8.90;99.90
5461;DHT22;2753;49.196;8.286;2023-12-29T00:34:46;9.00;99.90
5461;DHT22;2753;49.196;8.286;2023-12-29T00:37:11;8.90;99.90
5461;DHT22;2753;49.196;8.286;2023-12-29T00:39:37;9.00;99.90
5461;DHT22;2753;49.196;8.286;2023-12-29T00:42:06;8.90;99.90
5461;DHT22;2753;49.196;8.286;2023-12-29T00:44:32;8.90;99.90
5461;DHT22;2753;49.196;8.286;2023-12-29T00:46:59;9.00;99.90
5461;DHT22;2753;49.196;8.286;2023-12-29T00:49:26;9.00;99.90
5461;DHT22;2753;49.196;8.286;2023-12-29T00:51:52;9.00;99.90
5461;DHT22;2753;49.196;8.286;2023-12-29T00:54:17;9.00;99.90
5461;DHT22;2753;49.196;8.286;2023-12-29T00:56:50;9.00;99.90
5461;DHT22;2753;49.196;8.286;2023-12-29T00:59:19;9.00;99.90
5461;DHT22;2753;49.196;8.286;2023-12-29T01:01:45;9.00;99.90
5461;DHT22;2753;49.196;8.286;2023-12-29T01:04:11;9.00;99.90
5461;DHT22;2753;49.196;8.286;2023-12-29T01:06:37;9.00;99.90
5461;DHT22;2753;49.196;8.286;2023-12-29T01:09:02;9.00;99.90
5461;DHT22;2753;49.196;8.286;2023-12-29T01:11:28;9.00;99.90
5461;DHT22;2753;49.196;8.286;2023-12-29T01:13:54;9.00;99.90
5461;DHT22;2753;49.196;8.286;2023-12-29T01:16:20;9.00;99.90
5461;DHT22;2753;49.196;8.286;2023-12-29T01:18:45;9.00;99.90
5461;DHT22;2753;49.196;8.286;2023-12-29T01:21:11;9.00;99.90
5461;DHT22;2753;49.196;8.286;2023-12-29T01:23:37;9.00;99.90
5461;DHT22;2753;49.196;8.286;2023-12-29T01:26:03;9.00;99.90
5461;DHT22;2753;49.196;8.286;2023-12-29T01:28:28;9.00;99.90
5461;DHT22;2753;49.196;8.286;2023-12-29T01:30:54;9.00;99.90
5461;DHT22;2753;49.196;8.286;2023-12-29T01:33:19;9.00;99.90
5461;DHT22;2753;49.196;8.286;2023-12-29T01:35:47;9.10;99.90
5461;DHT22;2753;49.196;8.286;2023-12-29T01:38:12;9.10;99.90
5461;DHT22;2753;49.196;8.286;2023-12-29T01:40:47;9.00;99.90
5461;DHT22;2753;49.196;8.286;2023-12-29T01:43:16;9.00;99.90
5461;DHT22;2753;49.196;8.286;2023-12-29T01:45:41;9.00;99.90
5461;DHT22;2753;49.196;8.286;2023-12-29T01:48:08;9.00;99.90
5461;DHT22;2753;49.196;8.286;2023-12-29T01:50:34;9.00;99.90
5461;DHT22;2753;49.196;8.286;2023-12-29T01:53:01;9.00;99.90
5461;DHT22;2753;49.196;8.286;2023-12-29T01:55:29;8.90;99.90
5461;DHT22;2753;49.196;8.286;2023-12-29T01:57:58;8.90;99.90
5461;DHT22;2753;49.196;8.286;2023-12-29T02:00:24;8.90;99.90
5461;DHT22;2753;49.196;8.286;2023-12-29T02:02:51;8.90;99.90
5461;DHT22;2753;49.196;8.286;2023-12-29T02:05:17;8.90;99.90
5461;DHT22;2753;49.196;8.286;2023-12-29T02:07:43;8.90;99.90
5461;DHT22;2753;49.196;8.286;2023-12-29T02:10:09;8.90;99.90
5461;DHT22;2753;49.196;8.286;2023-12-29T02:12:39;8.90;99.90
5461;DHT22;2753;49.196;8.286;2023-12-29T02:15:05;8.90;99.90
5461;DHT22;2753;49.196;8.286;2023-12-29T02:17:40;8.90;99.90
5461;DHT22;2753;49.196;8.286;2023-12-29T02:20:08;8.90;99.90
5461;DHT22;2753;49.196;8.286;2023-12-29T02:22:34;8.80;99.90
5461;DHT22;2753;49.196;8.286;2023-12-29T02:25:05;8.80;99.90
5461;DHT22;2753;49.196;8.286;2023-12-29T02:32:39;8.80;99.90
5461;DHT22;2753;49.196;8.286;2023-12-29T02:35:09;8.80;99.90
5461;DHT22;2753;49.196;8.286;2023-12-29T02:37:37;8.80;99.90
5461;DHT22;2753;49.196;8.286;2023-12-29T02:40:05;8.80;99.90
5461;DHT22;2753;49.196;8.286;2023-12-29T02:42:31;8.80;99.90
5461;DHT22;2753;49.196;8.286;2023-12-29T02:44:56;8.80;99.90
5461;DHT22;2753;49.196;8.286;2023-12-29T02:47:22;8.80;99.90
5461;DHT22;2753;49.196;8.286;2023-12-29T02:49:48;8.80;99.90
5461;DHT22;2753;49.196;8.286;2023-12-29T02:52:15;8.80;99.90
5461;DHT22;2753;49.196;8.286;2023-12-29T02:54:41;8.80;99.90
5461;DHT22;2753;49.196;8.286;2023-12-29T02:57:06;8.80;99.90
5461;DHT22;2753;49.196;8.286;2023-12-29T02:59:32;8.80;99.90
5461;DHT22;2753;49.196;8.286;2023-12-29T03:01:58;8.80;99.90
5461;DHT22;2753;49.196;8.286;2023-12-29T03:04:23;8.70;99.90
5461;DHT22;2753;49.196;8.286;2023-12-29T03:06:49;8.80;99.90
5461;DHT22;2753;49.196;8.286;2023-12-29T03:09:14;8.80;99.90
5461;DHT22;2753;49.196;8.286;2023-12-29T03:11:40;8.70;99.90
5461;DHT22;2753;49.196;8.286;2023-12-29T03:14:06;8.70;99.90
5461;DHT22;2753;49.196;8.286;2023-12-29T03:16:31;8.70;99.90
5461;DHT22;2753;49.196;8.286;2023-12-29T03:18:57;8.70;99.90
5461;DHT22;2753;49.196;8.286;2023-12-29T03:21:23;8.80;99.90
5461;DHT22;2753;49.196;8.286;2023-12-29T03:23:49;8.80;99.90
5461;DHT22;2753;49.196;8.286;2023-12-29T03:26:14;8.80;99.90
5461;DHT22;2753;49.196;8.286;2023-12-29T03:28:40;8.80;99.90
5461;DHT22;2753;49.196;8.286;2023-12-29T03:31:05;8.80;99.90
5461;DHT22;2753;49.196;8.286;2023-12-29T03:33:32;8.70;99.90
5461;DHT22;2753;49.196;8.286;2023-12-29T03:35:57;8.70;99.90
5461;DHT22;2753;49.196;8.286;2023-12-29T03:38:23;8.70;99.90
5461;DHT22;2753;49.196;8.286;2023-12-29T03:40:49;8.70;99.90
5461;DHT22;2753;49.196;8.286;2023-12-29T03:43:14;8.70;99.90
5461;DHT22;2753;49.196;8.286;2023-12-29T03:45:40;8.70;99.90
5461;DHT22;2753;49.196;8.286;2023-12-29T03:48:06;8.70;99.90
5461;DHT22;2753;49.196;8.286;2023-12-29T03:50:33;8.70;99.90
5461;DHT22;2753;49.196;8.286;2023-12-29T03:52:59;8.70;99.90
5461;DHT22;2753;49.196;8.286;2023-12-29T03:55:24;8.70;99.90
5461;DHT22;2753;49.196;8.286;2023-12-29T03:57:53;8.70;99.90
5461;DHT22;2753;49.196;8.286;2023-12-29T04:00:19;8.70;99.90
5461;DHT22;2753;49.196;8.286;2023-12-29T04:02:44;8.70;99.90
5461;DHT22;2753;49.196;8.286;2023-12-29T04:05:10;8.70;99.90
5461;DHT22;2753;49.196;8.286;2023-12-29T04:07:38;8.70;99.90
5461;DHT22;2753;49.196;8.286;2023-12-29T04:10:04;8.70;99.90
5461;DHT22;2753;49.196;8.286;2023-12-29T04:12:30;8.70;99.90
5461;DHT22;2753;49.196;8.286;2023-12-29T04:14:56;8.70;99.90
5461;DHT22;2753;49.196;8.286;2023-12-29T04:17:21;8.70;99.90
5461;DHT22;2753;49.196;8.286;2023-12-29T04:19:47;8.70;99.90
5461;DHT22;2753;49.196;8.286;2023-12-29T04:22:12;8.80;99.90
5461;DHT22;2753;49.196;8.286;2023-12-29T04:24:38;8.80;99.90
5461;DHT22;2753;49.196;8.286;2023-12-29T04:27:04;8.80;99.90
5461;DHT22;2753;49.196;8.286;2023-12-29T04:29:30;8.80;99.90
5461;DHT22;2753;49.196;8.286;2023-12-29T04:31:56;8.80;99.90
5461;DHT22;2753;49.196;8.286;2023-12-29T04:34:21;8.90;99.90
5461;DHT22;2753;49.196;8.286;2023-12-29T04:36:47;8.90;99.90
5461;DHT22;2753;49.196;8.286;2023-12-29T04:39:13;8.90;99.90
5461;DHT22;2753;49.196;8.286;2023-12-29T04:41:41;8.90;99.90
5461;DHT22;2753;49.196;8.286;2023-12-29T04:44:07;8.90;99.90
5461;DHT22;2753;49.196;8.286;2023-12-29T04:46:33;8.90;99.90
5461;DHT22;2753;49.196;8.286;2023-12-29T04:48:59;9.00;99.90
5461;DHT22;2753;49.196;8.286;2023-12-29T04:51:24;8.90;99.90
5461;DHT22;2753;49.196;8.286;2023-12-29T04:53:51;9.00;99.90
5461;DHT22;2753;49.196;8.286;2023-12-29T04:56:16;8.90;99.90
5461;DHT22;2753;49.196;8.286;2023-12-29T04:58:42;8.90;99.90
5461;DHT22;2753;49.196;8.286;2023-12-29T05:01:07;8.90;99.90
5461;DHT22;2753;49.196;8.286;2023-12-29T05:03:34;8.90;99.90
5461;DHT22;2753;49.196;8.286;2023-12-29T05:05:59;8.90;99.90
5461;DHT22;2753;49.196;8.286;2023-12-29T05:08:25;8.90;99.90
5461;DHT22;2753;49.196;8.286;2023-12-29T05:10:51;8.90;99.90
5461;DHT22;2753;49.196;8.286;2023-12-29T05:13:16;8.80;99.90
5461;DHT22;2753;49.196;8.286;2023-12-29T05:15:42;8.80;99.90
5461;DHT22;2753;49.196;8.286;2023-12-29T05:18:08;8.80;99.90
5461;DHT22;2753;49.196;8.286;2023-12-29T05:20:34;8.80;99.90
5461;DHT22;2753;49.196;8.286;2023-12-29T05:23:00;8.90;99.90
5461;DHT22;2753;49.196;8.286;2023-12-29T05:25:29;8.80;99.90
5461;DHT22;2753;49.196;8.286;2023-12-29T05:27:54;8.80;99.90
5461;DHT22;2753;49.196;8.286;2023-12-29T05:30:20;8.80;99.90
5461;DHT22;2753;49.196;8.286;2023-12-29T05:32:45;8.80;99.90
5461;DHT22;2753;49.196;8.286;2023-12-29T05:35:11;8.80;99.90
5461;DHT22;2753;49.196;8.286;2023-12-29T05:37:37;8.80;99.90
5461;DHT22;2753;49.196;8.286;2023-12-29T05:40:03;8.70;99.90
5461;DHT22;2753;49.196;8.286;2023-12-29T05:42:29;8.70;99.90
5461;DHT22;2753;49.196;8.286;2023-12-29T05:44:55;8.70;99.90
5461;DHT22;2753;49.196;8.286;2023-12-29T05:47:20;8.70;99.90
5461;DHT22;2753;49.196;8.286;2023-12-29T05:49:46;8.70;99.90
5461;DHT22;2753;49.196;8.286;2023-12-29T05:52:12;8.70;99.90
5461;DHT22;2753;49.196;8.286;2023-12-29T05:54:40;8.70;99.90
5461;DHT22;2753;49.196;8.286;2023-12-29T05:57:06;8.70;99.90
5461;DHT22;2753;49.196;8.286;2023-12-29T05:59:32;8.60;99.90
5461;DHT22;2753;49.196;8.286;2023-12-29T06:01:57;8.70;99.90
5461;DHT22;2753;49.196;8.286;2023-12-29T06:04:23;8.60;99.90
5461;DHT22;2753;49.196;8.286;2023-12-29T06:06:49;8.60;99.90
5461;DHT22;2753;49.196;8.286;2023-12-29T06:09:14;8.60;99.90
5461;DHT22;2753;49.196;8.286;2023-12-29T06:11:40;8.60;99.90
5461;DHT22;2753;49.196;8.286;2023-12-29T06:14:06;8.60;99.90
5461;DHT22;2753;49.196;8.286;2023-12-29T06:16:32;8.60;99.90
5461;DHT22;2753;49.196;8.286;2023-12-29T06:18:57;8.50;99.90
5461;DHT22;2753;49.196;8.286;2023-12-29T06:21:23;8.50;99.90
5461;DHT22;2753;49.196;8.286;2023-12-29T06:23:49;8.50;99.90
5461;DHT22;2753;49.196;8.286;2023-12-29T06:26:19;8.50;99.90
5461;DHT22;2753;49.196;8.286;2023-12-29T06:28:46;8.50;99.90
5461;DHT22;2753;49.196;8.286;2023-12-29T06:31:12;8.50;99.90
5461;DHT22;2753;49.196;8.286;2023-12-29T06:33:42;8.50;99.90
5461;DHT22;2753;49.196;8.286;2023-12-29T06:36:09;8.50;99.90
5461;DHT22;2753;49.196;8.286;2023-12-29T06:38:35;8.50;99.90
5461;DHT22;2753;49.196;8.286;2023-12-29T06:41:02;8.40;99.90
5461;DHT22;2753;49.196;8.286;2023-12-29T06:43:29;8.40;99.90
5461;DHT22;2753;49.196;8.286;2023-12-29T06:45:55;8.40;99.90
5461;DHT22;2753;49.196;8.286;2023-12-29T06:48:21;8.40;99.90
5461;DHT22;2753;49.196;8.286;2023-12-29T06:50:46;8.40;99.90
5461;DHT22;2753;49.196;8.286;2023-12-29T06:53:12;8.40;99.90
5461;DHT22;2753;49.196;8.286;2023-12-29T06:55:38;8.40;99.90
5461;DHT22;2753;49.196;8.286;2023-12-29T06:58:07;8.40;99.90
5461;DHT22;2753;49.196;8.286;2023-12-29T07:00:33;8.40;99.90
5461;DHT22;2753;49.196;8.286;2023-12-29T07:03:00;8.40;99.90
5461;DHT22;2753;49.196;8.286;2023-12-29T07:05:29;8.40;99.90
5461;DHT22;2753;49.196;8.286;2023-12-29T07:07:55;8.30;99.90
5461;DHT22;2753;49.196;8.286;2023-12-29T07:10:21;8.40;99.90
5461;DHT22;2753;49.196;8.286;2023-12-29T07:12:46;8.30;99.90
5461;DHT22;2753;49.196;8.286;2023-12-29T07:15:12;8.40;99.90
5461;DHT22;2753;49.196;8.286;2023-12-29T07:17:39;8.40;99.90
5461;DHT22;2753;49.196;8.286;2023-12-29T07:20:06;8.40;99.90
5461;DHT22;2753;49.196;8.286;2023-12-29T07:22:32;8.30;99.90
5461;DHT22;2753;49.196;8.286;2023-12-29T07:24:58;8.30;99.90
5461;DHT22;2753;49.196;8.286;2023-12-29T07:27:24;8.30;99.90
5461;DHT22;2753;49.196;8.286;2023-12-29T07:29:50;8.30;99.90
5461;DHT22;2753;49.196;8.286;2023-12-29T07:32:15;8.40;99.90
5461;DHT22;2753;49.196;8.286;2023-12-29T07:34:47;8.40;99.90
5461;DHT22;2753;49.196;8.286;2023-12-29T07:37:14;8.40;99.90
5461;DHT22;2753;49.196;8.286;2023-12-29T07:39:40;8.30;99.90
5461;DHT22;2753;49.196;8.286;2023-12-29T07:42:05;8.40;99.90
5461;DHT22;2753;49.196;8.286;2023-12-29T07:44:31;8.30;99.90
5461;DHT22;2753;49.196;8.286;2023-12-29T07:46:57;8.30;99.90
5461;DHT22;2753;49.196;8.286;2023-12-29T07:49:23;8.40;99.90
5461;DHT22;2753;49.196;8.286;2023-12-29T07:51:49;8.40;99.90
5461;DHT22;2753;49.196;8.286;2023-12-29T07:54:14;8.40;99.90
5461;DHT22;2753;49.196;8.286;2023-12-29T07:56:41;8.40;99.90
5461;DHT22;2753;49.196;8.286;2023-12-29T07:59:06;8.40;99.90
5461;DHT22;2753;49.196;8.286;2023-12-29T08:01:32;8.40;99.90
5461;DHT22;2753;49.196;8.286;2023-12-29T08:03:58;8.40;99.90
5461;DHT22;2753;49.196;8.286;2023-12-29T08:06:23;8.40;99.90
5461;DHT22;2753;49.196;8.286;2023-12-29T08:08:49;8.40;99.90
5461;DHT22;2753;49.196;8.286;2023-12-29T08:11:16;8.50;99.90
5461;DHT22;2753;49.196;8.286;2023-12-29T08:13:43;8.40;99.90
5461;DHT22;2753;49.196;8.286;2023-12-29T08:16:10;8.40;99.90
5461;DHT22;2753;49.196;8.286;2023-12-29T08:18:35;8.40;99.90
5461;DHT22;2753;49.196;8.286;2023-12-29T08:21:01;8.50;99.90
5461;DHT22;2753;49.196;8.286;2023-12-29T08:23:27;8.50;99.90
5461;DHT22;2753;49.196;8.286;2023-12-29T08:25:53;8.60;99.90
5461;DHT22;2753;49.196;8.286;2023-12-29T08:28:18;8.60;99.90
5461;DHT22;2753;49.196;8.286;2023-12-29T08:30:44;8.60;99.90
5461;DHT22;2753;49.196;8.286;2023-12-29T08:33:11;8.60;99.90
5461;DHT22;2753;49.196;8.286;2023-12-29T08:35:40;8.70;99.90
5461;DHT22;2753;49.196;8.286;2023-12-29T08:38:06;8.70;99.90
5461;DHT22;2753;49.196;8.286;2023-12-29T08:40:32;8.70;99.90
5461;DHT22;2753;49.196;8.286;2023-12-29T08:42:57;8.80;99.90
5461;DHT22;2753;49.196;8.286;2023-12-29T08:45:23;8.80;99.90
5461;DHT22;2753;49.196;8.286;2023-12-29T08:47:49;8.80;99.90
5461;DHT22;2753;49.196;8.286;2023-12-29T08:50:15;8.90;99.90
5461;DHT22;2753;49.196;8.286;2023-12-29T08:52:41;8.90;99.90
5461;DHT22;2753;49.196;8.286;2023-12-29T08:55:07;9.00;99.90
5461;DHT22;2753;49.196;8.286;2023-12-29T08:57:33;9.00;99.90
5461;DHT22;2753;49.196;8.286;2023-12-29T09:00:00;9.00;99.90
5461;DHT22;2753;49.196;8.286;2023-12-29T09:02:26;9.10;99.90
5461;DHT22;2753;49.196;8.286;2023-12-29T09:04:51;9.20;99.90
5461;DHT22;2753;49.196;8.286;2023-12-29T09:07:17;9.20;99.90
5461;DHT22;2753;49.196;8.286;2023-12-29T09:09:43;9.30;99.90
5461;DHT22;2753;49.196;8.286;2023-12-29T09:12:08;9.40;99.90
5461;DHT22;2753;49.196;8.286;2023-12-29T09:14:34;9.50;99.90
5461;DHT22;2753;49.196;8.286;2023-12-29T09:17:00;9.60;99.90
5461;DHT22;2753;49.196;8.286;2023-12-29T09:19:26;9.60;99.90
5461;DHT22;2753;49.196;8.286;2023-12-29T09:21:52;9.70;99.90
5461;DHT22;2753;49.196;8.286;2023-12-29T12:03:27;12.40;99.90
5461;DHT22;2753;49.196;8.286;2023-12-29T12:05:55;12.40;99.90
5461;DHT22;2753;49.196;8.286;2023-12-29T12:08:27;12.40;99.90
5461;DHT22;2753;49.196;8.286;2023-12-29T12:10:54;12.40;99.90
5461;DHT22;2753;49.196;8.286;2023-12-29T12:13:45;12.40;99.90
5461;DHT22;2753;49.196;8.286;2023-12-29T12:19:10;12.30;99.90
5461;DHT22;2753;49.196;8.286;2023-12-29T12:21:37;12.20;99.90
5461;DHT22;2753;49.196;8.286;2023-12-29T12:24:04;12.20;99.90
5461;DHT22;2753;49.196;8.286;2023-12-29T12:26:34;12.20;99.90
5461;DHT22;2753;49.196;8.286;2023-12-29T12:29:03;12.20;99.90
5461;DHT22;2753;49.196;8.286;2023-12-29T12:31:29;12.20;99.90
5461;DHT22;2753;49.196;8.286;2023-12-29T12:33:56;12.20;99.90
5461;DHT22;2753;49.196;8.286;2023-12-29T12:36:22;12.10;99.90
5461;DHT22;2753;49.196;8.286;2023-12-29T12:38:52;12.10;99.90
5461;DHT22;2753;49.196;8.286;2023-12-29T12:41:18;12.10;99.90
5461;DHT22;2753;49.196;8.286;2023-12-29T12:46:22;12.10;99.90
5461;DHT22;2753;49.196;8.286;2023-12-29T12:48:52;12.00;99.90
5461;DHT22;2753;49.196;8.286;2023-12-29T12:51:19;12.00;99.90
5461;DHT22;2753;49.196;8.286;2023-12-29T12:53:46;12.00;99.90
5461;DHT22;2753;49.196;8.286;2023-12-29T12:56:14;12.00;99.90
5461;DHT22;2753;49.196;8.286;2023-12-29T12:58:40;11.90;99.90
5461;DHT22;2753;49.196;8.286;2023-12-29T13:01:06;11.90;99.90
5461;DHT22;2753;49.196;8.286;2023-12-29T13:03:32;11.90;99.90
5461;DHT22;2753;49.196;8.286;2023-12-29T13:05:59;12.00;99.90
5461;DHT22;2753;49.196;8.286;2023-12-29T13:08:26;11.90;99.90
5461;DHT22;2753;49.196;8.286;2023-12-29T13:10:52;11.90;99.90
5461;DHT22;2753;49.196;8.286;2023-12-29T13:13:18;11.90;99.90
5461;DHT22;2753;49.196;8.286;2023-12-29T13:15:51;11.90;99.90
5461;DHT22;2753;49.196;8.286;2023-12-29T13:18:17;12.00;99.90
5461;DHT22;2753;49.196;8.286;2023-12-29T13:20:46;12.00;99.90
5461;DHT22;2753;49.196;8.286;2023-12-29T13:23:13;12.00;99.90
5461;DHT22;2753;49.196;8.286;2023-12-29T13:25:40;12.00;99.90
5461;DHT22;2753;49.196;8.286;2023-12-29T13:28:06;12.00;99.90
5461;DHT22;2753;49.196;8.286;2023-12-29T13:30:33;12.00;99.90
5461;DHT22;2753;49.196;8.286;2023-12-29T13:32:59;12.00;99.90
5461;DHT22;2753;49.196;8.286;2023-12-29T13:35:40;11.90;99.90
5461;DHT22;2753;49.196;8.286;2023-12-29T13:38:16;11.90;99.90
5461;DHT22;2753;49.196;8.286;2023-12-29T13:40:54;11.90;99.90
5461;DHT22;2753;49.196;8.286;2023-12-29T13:43:24;11.80;99.90
5461;DHT22;2753;49.196;8.286;2023-12-29T13:45:50;11.80;99.90
5461;DHT22;2753;49.196;8.286;2023-12-29T13:48:17;11.80;99.90
5461;DHT22;2753;49.196;8.286;2023-12-29T13:50:47;11.80;99.90
5461;DHT22;2753;49.196;8.286;2023-12-29T13:53:20;11.80;99.90
5461;DHT22;2753;49.196;8.286;2023-12-29T13:55:46;11.80;99.90
5461;DHT22;2753;49.196;8.286;2023-12-29T13:58:12;11.70;99.90
5461;DHT22;2753;49.196;8.286;2023-12-29T14:00:42;11.70;99.90
5461;DHT22;2753;49.196;8.286;2023-12-29T14:04:17;11.70;99.90
5461;DHT22;2753;49.196;8.286;2023-12-29T14:06:36;11.70;99.90
5461;DHT22;2753;49.196;8.286;2023-12-29T14:09:03;11.60;99.90
5461;DHT22;2753;49.196;8.286;2023-12-29T14:11:29;11.60;99.90
5461;DHT22;2753;49.196;8.286;2023-12-29T14:13:56;11.60;99.90
5461;DHT22;2753;49.196;8.286;2023-12-29T14:16:22;11.60;99.90
5461;DHT22;2753;49.196;8.286;2023-12-29T14:18:55;11.60;99.90
5461;DHT22;2753;49.196;8.286;2023-12-29T14:21:33;11.60;99.90
5461;DHT22;2753;49.196;8.286;2023-12-29T14:24:07;11.60;99.90
5461;DHT22;2753;49.196;8.286;2023-12-29T14:26:58;11.60;99.90
5461;DHT22;2753;49.196;8.286;2023-12-29T14:29:24;11.60;99.90
5461;DHT22;2753;49.196;8.286;2023-12-29T14:31:51;11.60;99.90
5461;DHT22;2753;49.196;8.286;2023-12-29T14:34:17;11.50;99.90
5461;DHT22;2753;49.196;8.286;2023-12-29T14:36:44;11.50;99.90
5461;DHT22;2753;49.196;8.286;2023-12-29T14:39:10;11.50;99.90
5461;DHT22;2753;49.196;8.286;2023-12-29T14:41:39;11.50;99.90
5461;DHT22;2753;49.196;8.286;2023-12-29T14:44:05;11.40;99.90
5461;DHT22;2753;49.196;8.286;2023-12-29T14:46:31;11.40;99.90
5461;DHT22;2753;49.196;8.286;2023-12-29T14:48:58;11.40;99.90
5461;DHT22;2753;49.196;8.286;2023-12-29T14:51:24;11.40;99.90
5461;DHT22;2753;49.196;8.286;2023-12-29T14:53:50;11.40;99.90
5461;DHT22;2753;49.196;8.286;2023-12-29T14:56:16;11.40;99.90
5461;DHT22;2753;49.196;8.286;2023-12-29T14:58:42;11.30;99.90
5461;DHT22;2753;49.196;8.286;2023-12-29T15:01:08;11.30;99.90
5461;DHT22;2753;49.196;8.286;2023-12-29T15:03:35;11.30;99.90
5461;DHT22;2753;49.196;8.286;2023-12-29T15:06:02;11.30;99.90
5461;DHT22;2753;49.196;8.286;2023-12-29T15:08:28;11.30;99.90
5461;DHT22;2753;49.196;8.286;2023-12-29T15:11:03;11.20;99.90
5461;DHT22;2753;49.196;8.286;2023-12-29T15:13:29;11.20;99.90
5461;DHT22;2753;49.196;8.286;2023-12-29T15:15:59;11.20;99.90
5461;DHT22;2753;49.196;8.286;2023-12-29T15:18:28;11.20;99.90
5461;DHT22;2753;49.196;8.286;2023-12-29T15:20:58;11.20;99.90
5461;DHT22;2753;49.196;8.286;2023-12-29T15:23:24;11.20;99.90
5461;DHT22;2753;49.196;8.286;2023-12-29T15:25:50;11.10;99.90
5461;DHT22;2753;49.196;8.286;2023-12-29T15:28:16;11.10;99.90
5461;DHT22;2753;49.196;8.286;2023-12-29T15:30:46;11.10;99.90
5461;DHT22;2753;49.196;8.286;2023-12-29T15:33:12;11.10;99.90
5461;DHT22;2753;49.196;8.286;2023-12-29T15:35:39;11.10;99.90
5461;DHT22;2753;49.196;8.286;2023-12-29T15:38:06;11.10;99.90
5461;DHT22;2753;49.196;8.286;2023-12-29T15:40:32;11.00;99.90
5461;DHT22;2753;49.196;8.286;2023-12-29T15:42:58;11.00;99.90
5461;DHT22;2753;49.196;8.286;2023-12-29T15:45:23;11.00;99.90
5461;DHT22;2753;49.196;8.286;2023-12-29T15:47:49;10.90;99.90
5461;DHT22;2753;49.196;8.286;2023-12-29T15:50:15;10.90;99.90
5461;DHT22;2753;49.196;8.286;2023-12-29T15:52:40;10.90;99.90
5461;DHT22;2753;49.196;8.286;2023-12-29T15:55:07;10.80;99.90
5461;DHT22;2753;49.196;8.286;2023-12-29T15:57:33;10.80;99.90
5461;DHT22;2753;49.196;8.286;2023-12-29T15:59:58;10.80;99.90
5461;DHT22;2753;49.196;8.286;2023-12-29T16:02:25;10.80;99.90
5461;DHT22;2753;49.196;8.286;2023-12-29T16:04:52;10.80;99.90
5461;DHT22;2753;49.196;8.286;2023-12-29T16:07:18;10.80;99.90
5461;DHT22;2753;49.196;8.286;2023-12-29T16:09:43;10.80;99.90
5461;DHT22;2753;49.196;8.286;2023-12-29T16:12:09;10.80;99.90
5461;DHT22;2753;49.196;8.286;2023-12-29T16:14:35;10.70;99.90
5461;DHT22;2753;49.196;8.286;2023-12-29T16:17:01;10.70;99.90
5461;DHT22;2753;49.196;8.286;2023-12-29T16:19:27;10.60;99.90
5461;DHT22;2753;49.196;8.286;2023-12-29T16:21:56;10.60;99.90
5461;DHT22;2753;49.196;8.286;2023-12-29T16:24:21;10.60;99.90
5461;DHT22;2753;49.196;8.286;2023-12-29T16:26:48;10.60;99.90
5461;DHT22;2753;49.196;8.286;2023-12-29T16:29:14;10.60;99.90
5461;DHT22;2753;49.196;8.286;2023-12-29T16:31:39;10.60;99.90
5461;DHT22;2753;49.196;8.286;2023-12-29T16:34:05;10.60;99.90
5461;DHT22;2753;49.196;8.286;2023-12-29T16:36:31;10.60;99.90
5461;DHT22;2753;49.196;8.286;2023-12-29T16:38:56;10.60;99.90
5461;DHT22;2753;49.196;8.286;2023-12-29T16:41:22;10.60;99.90
5461;DHT22;2753;49.196;8.286;2023-12-29T16:43:48;10.60;99.90
5461;DHT22;2753;49.196;8.286;2023-12-29T16:46:15;10.50;99.90
5461;DHT22;2753;49.196;8.286;2023-12-29T16:48:41;10.60;99.90
5461;DHT22;2753;49.196;8.286;2023-12-29T16:51:07;10.60;99.90
5461;DHT22;2753;49.196;8.286;2023-12-29T16:53:33;10.60;99.90
5461;DHT22;2753;49.196;8.286;2023-12-29T16:55:59;10.60;99.90
5461;DHT22;2753;49.196;8.286;2023-12-29T16:58:25;10.60;99.90
5461;DHT22;2753;49.196;8.286;2023-12-29T17:00:51;10.60;99.90
5461;DHT22;2753;49.196;8.286;2023-12-29T17:03:20;10.60;99.90
5461;DHT22;2753;49.196;8.286;2023-12-29T17:05:49;10.60;99.90
5461;DHT22;2753;49.196;8.286;2023-12-29T17:08:15;10.60;99.90
5461;DHT22;2753;49.196;8.286;2023-12-29T17:10:44;10.60;99.90
5461;DHT22;2753;49.196;8.286;2023-12-29T17:13:09;10.60;99.90
5461;DHT22;2753;49.196;8.286;2023-12-29T17:15:35;10.60;99.90
5461;DHT22;2753;49.196;8.286;2023-12-29T17:18:01;10.50;99.90
5461;DHT22;2753;49.196;8.286;2023-12-29T17:20:30;10.50;99.90
5461;DHT22;2753;49.196;8.286;2023-12-29T17:22:56;10.50;99.90
5461;DHT22;2753;49.196;8.286;2023-12-29T17:25:22;10.50;99.90
5461;DHT22;2753;49.196;8.286;2023-12-29T17:27:48;10.50;99.90
5461;DHT22;2753;49.196;8.286;2023-12-29T17:30:13;10.50;99.90
5461;DHT22;2753;49.196;8.286;2023-12-29T17:38:22;10.50;99.90
5461;DHT22;2753;49.196;8.286;2023-12-29T17:40:48;10.50;99.90
5461;DHT22;2753;49.196;8.286;2023-12-29T17:43:14;10.40;99.90
5461;DHT22;2753;49.196;8.286;2023-12-29T17:45:40;10.40;99.90
5461;DHT22;2753;49.196;8.286;2023-12-29T17:48:06;10.40;99.90
5461;DHT22;2753;49.196;8.286;2023-12-29T17:50:32;10.40;99.90
5461;DHT22;2753;49.196;8.286;2023-12-29T17:52:58;10.40;99.90
5461;DHT22;2753;49.196;8.286;2023-12-29T17:55:23;10.40;99.90
5461;DHT22;2753;49.196;8.286;2023-12-29T17:57:51;10.40;99.90
5461;DHT22;2753;49.196;8.286;2023-12-29T18:00:17;10.40;99.90
5461;DHT22;2753;49.196;8.286;2023-12-29T18:02:43;10.30;99.90
5461;DHT22;2753;49.196;8.286;2023-12-29T18:05:09;10.30;99.90
5461;DHT22;2753;49.196;8.286;2023-12-29T18:07:35;10.30;99.90
5461;DHT22;2753;49.196;8.286;2023-12-29T18:10:00;10.30;99.90
5461;DHT22;2753;49.196;8.286;2023-12-29T18:12:28;10.30;99.90
5461;DHT22;2753;49.196;8.286;2023-12-29T18:14:53;10.20;99.90
5461;DHT22;2753;49.196;8.286;2023-12-29T18:17:19;10.20;99.90
5461;DHT22;2753;49.196;8.286;2023-12-29T18:19:48;10.20;99.90
5461;DHT22;2753;49.196;8.286;2023-12-29T18:22:15;10.20;99.90
5461;DHT22;2753;49.196;8.286;2023-12-29T18:24:43;10.20;99.90
5461;DHT22;2753;49.196;8.286;2023-12-29T18:27:13;10.20;99.90
5461;DHT22;2753;49.196;8.286;2023-12-29T18:29:39;10.20;99.90
5461;DHT22;2753;49.196;8.286;2023-12-29T18:32:21;10.20;99.90
5461;DHT22;2753;49.196;8.286;2023-12-29T18:34:47;10.20;99.90
5461;DHT22;2753;49.196;8.286;2023-12-29T18:37:19;10.20;99.90
5461;DHT22;2753;49.196;8.286;2023-12-29T18:39:46;10.20;99.90
5461;DHT22;2753;49.196;8.286;2023-12-29T18:42:12;10.20;99.90
5461;DHT22;2753;49.196;8.286;2023-12-29T18:44:38;10.20;99.90
5461;DHT22;2753;49.196;8.286;2023-12-29T18:47:04;10.20;99.90
5461;DHT22;2753;49.196;8.286;2023-12-29T18:49:30;10.20;99.90
5461;DHT22;2753;49.196;8.286;2023-12-29T18:51:56;10.20;99.90
5461;DHT22;2753;49.196;8.286;2023-12-29T18:54:22;10.20;99.90
5461;DHT22;2753;49.196;8.286;2023-12-29T18:56:48;10.20;99.90
5461;DHT22;2753;49.196;8.286;2023-12-29T18:59:16;10.20;99.90
5461;DHT22;2753;49.196;8.286;2023-12-29T19:01:46;10.20;99.90
5461;DHT22;2753;49.196;8.286;2023-12-29T19:04:13;10.20;99.90